sensor_id;sensor_type;location;lat;lon;timestamp;P1;durP1;ratioP1;P2;durP2;ratioP2
16242;SDS011;11719;51.052;6.982;2023-08-21T00:01:36;2.78;;;1.85;;
16242;SDS011;11719;51.052;6.982;2023-08-21T00:04:02;2.15;;;1.95;;
16242;SDS011;11719;51.052;6.982;2023-08-21T00:06:28;3.95;;;1.83;;
16242;SDS011;11719;51.052;6.982;2023-08-21T00:08:54;3.80;;;1.80;;
16242;SDS011;11719;51.052;6.982;2023-08-21T00:11:20;3.65;;;2.10;;
16242;SDS011;11719;51.052;6.982;2023-08-21T00:13:46;5.25;;;1.95;;
16242;SDS011;11719;51.052;6.982;2023-08-21T00:16:14;2.75;;;2.35;;
16242;SDS011;11719;51.052;6.982;2023-08-21T00:18:41;5.13;;;2.45;;
16242;SDS011;11719;51.052;6.982;2023-08-21T00:21:07;3.65;;;2.22;;
16242;SDS011;11719;51.052;6.982;2023-08-21T00:23:33;3.58;;;2.17;;
16242;SDS011;11719;51.052;6.982;2023-08-21T00:25:59;2.63;;;2.15;;
16242;SDS011;11719;51.052;6.982;2023-08-21T00:28:25;3.30;;;2.00;;
16242;SDS011;11719;51.052;6.982;2023-08-21T00:30:51;3.53;;;2.20;;
16242;SDS011;11719;51.052;6.982;2023-08-21T00:33:16;2.65;;;2.13;;
16242;SDS011;11719;51.052;6.982;2023-08-21T00:35:42;3.40;;;2.28;;
16242;SDS011;11719;51.052;6.982;2023-08-21T00:38:08;3.33;;;2.33;;
16242;SDS011;11719;51.052;6.982;2023-08-21T00:40:34;2.78;;;2.10;;
16242;SDS011;11719;51.052;6.982;2023-08-21T00:42:59;2.40;;;2.20;;
16242;SDS011;11719;51.052;6.982;2023-08-21T00:45:25;2.53;;;2.15;;
16242;SDS011;11719;51.052;6.982;2023-08-21T00:47:51;2.38;;;1.75;;
16242;SDS011;11719;51.052;6.982;2023-08-21T00:50:17;2.45;;;2.25;;
16242;SDS011;11719;51.052;6.982;2023-08-21T00:52:44;4.53;;;2.53;;
16242;SDS011;11719;51.052;6.982;2023-08-21T00:55:13;1.98;;;1.77;;
16242;SDS011;11719;51.052;6.982;2023-08-21T00:57:39;2.90;;;2.10;;
16242;SDS011;11719;51.052;6.982;2023-08-21T01:00:06;3.40;;;2.05;;
16242;SDS011;11719;51.052;6.982;2023-08-21T01:02:35;5.63;;;2.20;;
16242;SDS011;11719;51.052;6.982;2023-08-21T01:05:01;1.90;;;1.70;;
16242;SDS011;11719;51.052;6.982;2023-08-21T01:07:28;2.78;;;2.15;;
16242;SDS011;11719;51.052;6.982;2023-08-21T01:10:03;2.40;;;1.92;;
16242;SDS011;11719;51.052;6.982;2023-08-21T01:12:48;2.03;;;1.83;;
16242;SDS011;11719;51.052;6.982;2023-08-21T01:15:38;4.30;;;2.58;;
16242;SDS011;11719;51.052;6.982;2023-08-21T01:18:04;2.00;;;1.80;;
16242;SDS011;11719;51.052;6.982;2023-08-21T01:20:32;2.08;;;1.80;;
16242;SDS011;11719;51.052;6.982;2023-08-21T01:23:02;2.00;;;1.75;;
16242;SDS011;11719;51.052;6.982;2023-08-21T01:25:33;2.90;;;2.33;;
16242;SDS011;11719;51.052;6.982;2023-08-21T01:27:58;2.75;;;2.28;;
16242;SDS011;11719;51.052;6.982;2023-08-21T01:30:25;4.07;;;2.30;;
16242;SDS011;11719;51.052;6.982;2023-08-21T01:35:22;4.35;;;2.13;;
16242;SDS011;11719;51.052;6.982;2023-08-21T01:37:49;3.17;;;2.33;;
16242;SDS011;11719;51.052;6.982;2023-08-21T01:40:22;4.03;;;2.30;;
16242;SDS011;11719;51.052;6.982;2023-08-21T01:42:49;6.70;;;2.65;;
16242;SDS011;11719;51.052;6.982;2023-08-21T01:45:15;4.43;;;2.20;;
16242;SDS011;11719;51.052;6.982;2023-08-21T01:47:41;1.70;;;1.60;;
16242;SDS011;11719;51.052;6.982;2023-08-21T01:50:07;3.08;;;2.20;;
16242;SDS011;11719;51.052;6.982;2023-08-21T01:52:33;3.85;;;2.42;;
16242;SDS011;11719;51.052;6.982;2023-08-21T01:54:59;2.55;;;1.80;;
16242;SDS011;11719;51.052;6.982;2023-08-21T01:57:25;4.00;;;2.40;;
16242;SDS011;11719;51.052;6.982;2023-08-21T01:59:51;2.42;;;1.95;;
16242;SDS011;11719;51.052;6.982;2023-08-21T02:02:16;3.58;;;2.30;;
16242;SDS011;11719;51.052;6.982;2023-08-21T02:04:42;2.00;;;1.80;;
16242;SDS011;11719;51.052;6.982;2023-08-21T02:07:08;3.20;;;2.13;;
16242;SDS011;11719;51.052;6.982;2023-08-21T02:09:34;2.35;;;1.85;;
16242;SDS011;11719;51.052;6.982;2023-08-21T02:11:59;2.58;;;1.63;;
16242;SDS011;11719;51.052;6.982;2023-08-21T02:14:26;1.92;;;1.50;;
16242;SDS011;11719;51.052;6.982;2023-08-21T02:16:53;2.13;;;1.95;;
16242;SDS011;11719;51.052;6.982;2023-08-21T02:19:18;1.77;;;1.58;;
16242;SDS011;11719;51.052;6.982;2023-08-21T02:21:44;1.93;;;1.63;;
16242;SDS011;11719;51.052;6.982;2023-08-21T02:24:10;2.58;;;1.65;;
16242;SDS011;11719;51.052;6.982;2023-08-21T02:26:36;3.50;;;2.13;;
16242;SDS011;11719;51.052;6.982;2023-08-21T02:29:01;2.97;;;2.33;;
16242;SDS011;11719;51.052;6.982;2023-08-21T02:31:28;4.80;;;2.08;;
16242;SDS011;11719;51.052;6.982;2023-08-21T02:33:54;4.40;;;2.00;;
16242;SDS011;11719;51.052;6.982;2023-08-21T02:36:20;2.33;;;1.85;;
16242;SDS011;11719;51.052;6.982;2023-08-21T02:38:46;1.65;;;1.55;;
16242;SDS011;11719;51.052;6.982;2023-08-21T02:41:11;1.95;;;1.75;;
16242;SDS011;11719;51.052;6.982;2023-08-21T02:43:37;2.97;;;2.50;;
16242;SDS011;11719;51.052;6.982;2023-08-21T02:46:03;2.30;;;1.88;;
16242;SDS011;11719;51.052;6.982;2023-08-21T02:48:29;5.20;;;2.07;;
16242;SDS011;11719;51.052;6.982;2023-08-21T02:50:54;3.35;;;1.90;;
16242;SDS011;11719;51.052;6.982;2023-08-21T02:53:20;2.28;;;1.90;;
16242;SDS011;11719;51.052;6.982;2023-08-21T02:55:46;2.10;;;1.70;;
16242;SDS011;11719;51.052;6.982;2023-08-21T02:58:11;3.25;;;2.00;;
16242;SDS011;11719;51.052;6.982;2023-08-21T03:00:37;3.37;;;2.40;;
16242;SDS011;11719;51.052;6.982;2023-08-21T03:03:03;2.43;;;2.00;;
16242;SDS011;11719;51.052;6.982;2023-08-21T03:05:29;4.07;;;2.27;;
16242;SDS011;11719;51.052;6.982;2023-08-21T03:07:55;5.43;;;1.83;;
16242;SDS011;11719;51.052;6.982;2023-08-21T03:10:21;3.35;;;2.10;;
16242;SDS011;11719;51.052;6.982;2023-08-21T03:12:48;8.10;;;2.15;;
16242;SDS011;11719;51.052;6.982;2023-08-21T03:15:14;2.87;;;2.07;;
16242;SDS011;11719;51.052;6.982;2023-08-21T03:17:40;2.50;;;1.80;;
16242;SDS011;11719;51.052;6.982;2023-08-21T03:20:06;1.77;;;1.65;;
16242;SDS011;11719;51.052;6.982;2023-08-21T03:22:33;2.23;;;1.97;;
16242;SDS011;11719;51.052;6.982;2023-08-21T03:24:58;4.15;;;2.33;;
16242;SDS011;11719;51.052;6.982;2023-08-21T03:27:24;2.73;;;2.00;;
16242;SDS011;11719;51.052;6.982;2023-08-21T03:29:50;3.65;;;2.10;;
16242;SDS011;11719;51.052;6.982;2023-08-21T03:32:16;3.23;;;2.50;;
16242;SDS011;11719;51.052;6.982;2023-08-21T03:34:42;1.67;;;1.27;;
16242;SDS011;11719;51.052;6.982;2023-08-21T03:37:09;3.03;;;2.07;;
16242;SDS011;11719;51.052;6.982;2023-08-21T03:39:35;1.90;;;1.70;;
16242;SDS011;11719;51.052;6.982;2023-08-21T03:42:01;2.15;;;1.95;;
16242;SDS011;11719;51.052;6.982;2023-08-21T03:44:27;2.03;;;1.70;;
16242;SDS011;11719;51.052;6.982;2023-08-21T03:46:53;4.90;;;2.53;;
16242;SDS011;11719;51.052;6.982;2023-08-21T03:49:18;2.53;;;2.33;;
16242;SDS011;11719;51.052;6.982;2023-08-21T03:51:44;3.38;;;2.08;;
16242;SDS011;11719;51.052;6.982;2023-08-21T03:54:10;3.10;;;1.90;;
16242;SDS011;11719;51.052;6.982;2023-08-21T03:56:36;2.17;;;1.80;;
16242;SDS011;11719;51.052;6.982;2023-08-21T03:59:02;2.50;;;2.23;;
16242;SDS011;11719;51.052;6.982;2023-08-21T04:01:28;1.83;;;1.65;;
16242;SDS011;11719;51.052;6.982;2023-08-21T04:03:53;4.43;;;1.97;;
16242;SDS011;11719;51.052;6.982;2023-08-21T04:06:19;4.77;;;2.60;;
16242;SDS011;11719;51.052;6.982;2023-08-21T04:08:45;3.72;;;2.50;;
16242;SDS011;11719;51.052;6.982;2023-08-21T04:11:11;3.17;;;2.13;;
16242;SDS011;11719;51.052;6.982;2023-08-21T04:13:37;4.43;;;1.95;;
16242;SDS011;11719;51.052;6.982;2023-08-21T04:16:02;3.00;;;1.50;;
16242;SDS011;11719;51.052;6.982;2023-08-21T04:18:28;3.60;;;1.73;;
16242;SDS011;11719;51.052;6.982;2023-08-21T04:20:54;5.03;;;2.57;;
16242;SDS011;11719;51.052;6.982;2023-08-21T04:23:20;4.60;;;2.20;;
16242;SDS011;11719;51.052;6.982;2023-08-21T04:25:46;4.55;;;2.45;;
16242;SDS011;11719;51.052;6.982;2023-08-21T04:28:11;4.07;;;2.77;;
16242;SDS011;11719;51.052;6.982;2023-08-21T04:30:39;1.75;;;1.65;;
16242;SDS011;11719;51.052;6.982;2023-08-21T04:33:07;1.87;;;1.70;;
16242;SDS011;11719;51.052;6.982;2023-08-21T04:35:36;3.88;;;2.40;;
16242;SDS011;11719;51.052;6.982;2023-08-21T04:38:03;2.97;;;2.30;;
16242;SDS011;11719;51.052;6.982;2023-08-21T04:40:29;3.87;;;2.40;;
16242;SDS011;11719;51.052;6.982;2023-08-21T04:42:55;4.23;;;2.37;;
16242;SDS011;11719;51.052;6.982;2023-08-21T04:45:21;7.67;;;2.50;;
16242;SDS011;11719;51.052;6.982;2023-08-21T04:47:46;3.10;;;2.30;;
16242;SDS011;11719;51.052;6.982;2023-08-21T04:50:12;3.55;;;2.17;;
16242;SDS011;11719;51.052;6.982;2023-08-21T04:52:38;4.77;;;2.80;;
16242;SDS011;11719;51.052;6.982;2023-08-21T04:55:04;2.77;;;2.40;;
16242;SDS011;11719;51.052;6.982;2023-08-21T04:57:31;4.20;;;2.08;;
16242;SDS011;11719;51.052;6.982;2023-08-21T04:59:57;4.00;;;2.40;;
16242;SDS011;11719;51.052;6.982;2023-08-21T05:02:23;6.10;;;2.70;;
16242;SDS011;11719;51.052;6.982;2023-08-21T05:04:49;1.77;;;1.47;;
16242;SDS011;11719;51.052;6.982;2023-08-21T05:07:15;2.23;;;1.73;;
16242;SDS011;11719;51.052;6.982;2023-08-21T05:09:40;2.37;;;1.50;;
16242;SDS011;11719;51.052;6.982;2023-08-21T05:12:07;3.90;;;2.10;;
16242;SDS011;11719;51.052;6.982;2023-08-21T05:14:33;4.83;;;2.80;;
16242;SDS011;11719;51.052;6.982;2023-08-21T05:16:59;4.47;;;2.60;;
16242;SDS011;11719;51.052;6.982;2023-08-21T05:19:25;3.60;;;2.60;;
16242;SDS011;11719;51.052;6.982;2023-08-21T05:21:51;1.97;;;1.77;;
16242;SDS011;11719;51.052;6.982;2023-08-21T05:24:17;1.73;;;1.57;;
16242;SDS011;11719;51.052;6.982;2023-08-21T05:26:42;4.30;;;2.83;;
16242;SDS011;11719;51.052;6.982;2023-08-21T05:29:08;3.27;;;2.20;;
16242;SDS011;11719;51.052;6.982;2023-08-21T05:31:34;3.10;;;2.50;;
16242;SDS011;11719;51.052;6.982;2023-08-21T05:33:59;3.63;;;2.55;;
16242;SDS011;11719;51.052;6.982;2023-08-21T05:36:25;3.97;;;2.05;;
16242;SDS011;11719;51.052;6.982;2023-08-21T05:38:51;4.80;;;2.67;;
16242;SDS011;11719;51.052;6.982;2023-08-21T05:41:17;3.30;;;2.47;;
16242;SDS011;11719;51.052;6.982;2023-08-21T05:43:43;2.92;;;2.40;;
16242;SDS011;11719;51.052;6.982;2023-08-21T05:46:10;3.27;;;2.20;;
16242;SDS011;11719;51.052;6.982;2023-08-21T05:48:36;6.28;;;2.63;;
16242;SDS011;11719;51.052;6.982;2023-08-21T05:51:02;5.73;;;2.80;;
16242;SDS011;11719;51.052;6.982;2023-08-21T05:53:28;4.90;;;2.97;;
16242;SDS011;11719;51.052;6.982;2023-08-21T05:55:54;6.72;;;3.13;;
16242;SDS011;11719;51.052;6.982;2023-08-21T05:58:20;5.53;;;3.15;;
16242;SDS011;11719;51.052;6.982;2023-08-21T06:00:46;3.20;;;2.83;;
16242;SDS011;11719;51.052;6.982;2023-08-21T06:03:12;3.60;;;2.53;;
16242;SDS011;11719;51.052;6.982;2023-08-21T06:05:38;5.77;;;2.60;;
16242;SDS011;11719;51.052;6.982;2023-08-21T06:08:04;5.93;;;2.73;;
16242;SDS011;11719;51.052;6.982;2023-08-21T06:10:31;7.07;;;3.10;;
16242;SDS011;11719;51.052;6.982;2023-08-21T06:12:57;4.30;;;2.75;;
16242;SDS011;11719;51.052;6.982;2023-08-21T06:15:23;4.30;;;2.55;;
16242;SDS011;11719;51.052;6.982;2023-08-21T06:17:48;4.80;;;3.07;;
16242;SDS011;11719;51.052;6.982;2023-08-21T06:20:14;4.60;;;2.72;;
16242;SDS011;11719;51.052;6.982;2023-08-21T06:22:40;5.15;;;3.00;;
16242;SDS011;11719;51.052;6.982;2023-08-21T06:25:07;3.50;;;2.85;;
16242;SDS011;11719;51.052;6.982;2023-08-21T06:27:33;3.97;;;2.53;;
16242;SDS011;11719;51.052;6.982;2023-08-21T06:29:59;4.43;;;2.88;;
16242;SDS011;11719;51.052;6.982;2023-08-21T06:32:26;4.18;;;3.22;;
16242;SDS011;11719;51.052;6.982;2023-08-21T06:34:51;3.88;;;2.97;;
16242;SDS011;11719;51.052;6.982;2023-08-21T06:37:17;5.43;;;2.95;;
16242;SDS011;11719;51.052;6.982;2023-08-21T06:39:43;3.43;;;3.13;;
16242;SDS011;11719;51.052;6.982;2023-08-21T06:42:11;4.38;;;3.35;;
16242;SDS011;11719;51.052;6.982;2023-08-21T06:44:36;5.60;;;3.45;;
16242;SDS011;11719;51.052;6.982;2023-08-21T06:47:02;11.25;;;3.45;;
16242;SDS011;11719;51.052;6.982;2023-08-21T06:49:28;5.47;;;3.35;;
16242;SDS011;11719;51.052;6.982;2023-08-21T06:51:54;7.60;;;3.75;;
16242;SDS011;11719;51.052;6.982;2023-08-21T06:54:19;5.38;;;3.42;;
16242;SDS011;11719;51.052;6.982;2023-08-21T06:56:45;5.55;;;3.20;;
16242;SDS011;11719;51.052;6.982;2023-08-21T06:59:11;6.65;;;3.05;;
16242;SDS011;11719;51.052;6.982;2023-08-21T07:01:37;5.13;;;3.35;;
16242;SDS011;11719;51.052;6.982;2023-08-21T07:04:02;4.43;;;3.45;;
16242;SDS011;11719;51.052;6.982;2023-08-21T07:06:29;6.75;;;4.00;;
16242;SDS011;11719;51.052;6.982;2023-08-21T07:08:56;7.15;;;4.22;;
16242;SDS011;11719;51.052;6.982;2023-08-21T07:11:22;5.75;;;3.75;;
16242;SDS011;11719;51.052;6.982;2023-08-21T07:13:48;6.20;;;3.90;;
16242;SDS011;11719;51.052;6.982;2023-08-21T07:16:14;10.35;;;5.95;;
16242;SDS011;11719;51.052;6.982;2023-08-21T07:18:40;7.50;;;5.20;;
16242;SDS011;11719;51.052;6.982;2023-08-21T07:21:05;2.63;;;1.95;;
16242;SDS011;11719;51.052;6.982;2023-08-21T07:23:31;8.23;;;4.80;;
16242;SDS011;11719;51.052;6.982;2023-08-21T07:25:59;8.05;;;5.18;;
16242;SDS011;11719;51.052;6.982;2023-08-21T07:28:26;6.05;;;4.78;;
16242;SDS011;11719;51.052;6.982;2023-08-21T07:30:55;8.57;;;5.05;;
16242;SDS011;11719;51.052;6.982;2023-08-21T07:33:22;5.85;;;4.13;;
16242;SDS011;11719;51.052;6.982;2023-08-21T07:35:58;9.05;;;5.22;;
16242;SDS011;11719;51.052;6.982;2023-08-21T07:38:29;8.10;;;5.30;;
16242;SDS011;11719;51.052;6.982;2023-08-21T07:41:03;7.80;;;5.30;;
16242;SDS011;11719;51.052;6.982;2023-08-21T07:43:36;7.38;;;5.35;;
16242;SDS011;11719;51.052;6.982;2023-08-21T07:46:03;9.27;;;5.80;;
16242;SDS011;11719;51.052;6.982;2023-08-21T07:48:31;9.50;;;5.40;;
16242;SDS011;11719;51.052;6.982;2023-08-21T07:50:57;6.50;;;4.65;;
16242;SDS011;11719;51.052;6.982;2023-08-21T07:53:24;7.35;;;4.25;;
16242;SDS011;11719;51.052;6.982;2023-08-21T07:55:52;9.35;;;4.88;;
16242;SDS011;11719;51.052;6.982;2023-08-21T07:58:18;6.55;;;4.70;;
16242;SDS011;11719;51.052;6.982;2023-08-21T08:00:44;8.32;;;5.10;;
16242;SDS011;11719;51.052;6.982;2023-08-21T08:03:10;5.65;;;4.38;;
16242;SDS011;11719;51.052;6.982;2023-08-21T08:05:39;6.18;;;4.63;;
16242;SDS011;11719;51.052;6.982;2023-08-21T08:08:06;7.80;;;4.43;;
16242;SDS011;11719;51.052;6.982;2023-08-21T08:10:33;7.75;;;5.22;;
16242;SDS011;11719;51.052;6.982;2023-08-21T08:12:58;7.97;;;4.30;;
16242;SDS011;11719;51.052;6.982;2023-08-21T08:15:24;11.65;;;4.28;;
16242;SDS011;11719;51.052;6.982;2023-08-21T08:17:50;7.35;;;4.03;;
16242;SDS011;11719;51.052;6.982;2023-08-21T08:20:19;6.38;;;4.55;;
16242;SDS011;11719;51.052;6.982;2023-08-21T08:22:45;7.20;;;3.92;;
16242;SDS011;11719;51.052;6.982;2023-08-21T08:25:11;4.10;;;3.65;;
16242;SDS011;11719;51.052;6.982;2023-08-21T08:27:38;11.15;;;4.53;;
16242;SDS011;11719;51.052;6.982;2023-08-21T08:30:04;6.30;;;3.85;;
16242;SDS011;11719;51.052;6.982;2023-08-21T08:32:31;7.63;;;5.15;;
16242;SDS011;11719;51.052;6.982;2023-08-21T08:34:57;4.45;;;3.90;;
16242;SDS011;11719;51.052;6.982;2023-08-21T08:37:22;6.75;;;4.28;;
16242;SDS011;11719;51.052;6.982;2023-08-21T08:39:48;6.95;;;4.45;;
16242;SDS011;11719;51.052;6.982;2023-08-21T08:42:14;13.32;;;5.47;;
16242;SDS011;11719;51.052;6.982;2023-08-21T08:44:41;9.18;;;5.72;;
16242;SDS011;11719;51.052;6.982;2023-08-21T08:47:08;10.18;;;5.25;;
16242;SDS011;11719;51.052;6.982;2023-08-21T08:49:36;7.07;;;3.90;;
16242;SDS011;11719;51.052;6.982;2023-08-21T08:52:03;7.97;;;4.53;;
16242;SDS011;11719;51.052;6.982;2023-08-21T08:54:29;9.10;;;5.18;;
16242;SDS011;11719;51.052;6.982;2023-08-21T08:56:56;9.73;;;5.65;;
16242;SDS011;11719;51.052;6.982;2023-08-21T08:59:23;11.40;;;6.10;;
16242;SDS011;11719;51.052;6.982;2023-08-21T09:01:49;5.13;;;4.30;;
16242;SDS011;11719;51.052;6.982;2023-08-21T09:04:15;10.05;;;4.70;;
16242;SDS011;11719;51.052;6.982;2023-08-21T09:06:41;7.63;;;4.80;;
16242;SDS011;11719;51.052;6.982;2023-08-21T09:09:07;5.25;;;3.85;;
16242;SDS011;11719;51.052;6.982;2023-08-21T09:11:35;11.68;;;6.30;;
16242;SDS011;11719;51.052;6.982;2023-08-21T09:14:07;8.32;;;5.38;;
16242;SDS011;11719;51.052;6.982;2023-08-21T09:16:35;6.70;;;4.30;;
16242;SDS011;11719;51.052;6.982;2023-08-21T09:19:01;7.38;;;4.53;;
16242;SDS011;11719;51.052;6.982;2023-08-21T09:21:26;6.28;;;4.78;;
16242;SDS011;11719;51.052;6.982;2023-08-21T09:23:57;5.28;;;3.97;;
16242;SDS011;11719;51.052;6.982;2023-08-21T09:26:25;6.60;;;4.03;;
16242;SDS011;11719;51.052;6.982;2023-08-21T09:28:52;8.10;;;4.47;;
16242;SDS011;11719;51.052;6.982;2023-08-21T09:31:22;3.75;;;2.58;;
16242;SDS011;11719;51.052;6.982;2023-08-21T09:33:55;7.55;;;5.30;;
16242;SDS011;11719;51.052;6.982;2023-08-21T09:36:29;7.30;;;5.22;;
16242;SDS011;11719;51.052;6.982;2023-08-21T09:38:56;7.82;;;5.22;;
16242;SDS011;11719;51.052;6.982;2023-08-21T09:41:22;9.80;;;5.72;;
16242;SDS011;11719;51.052;6.982;2023-08-21T09:43:51;7.47;;;5.47;;
16242;SDS011;11719;51.052;6.982;2023-08-21T09:46:17;7.57;;;4.72;;
16242;SDS011;11719;51.052;6.982;2023-08-21T09:48:49;10.77;;;5.05;;
16242;SDS011;11719;51.052;6.982;2023-08-21T09:51:17;7.38;;;4.88;;
16242;SDS011;11719;51.052;6.982;2023-08-21T09:53:44;7.15;;;4.38;;
16242;SDS011;11719;51.052;6.982;2023-08-21T09:56:11;7.65;;;3.55;;
16242;SDS011;11719;51.052;6.982;2023-08-21T09:58:37;7.38;;;4.93;;
16242;SDS011;11719;51.052;6.982;2023-08-21T10:01:07;5.53;;;4.10;;
16242;SDS011;11719;51.052;6.982;2023-08-21T10:03:38;9.50;;;5.22;;
16242;SDS011;11719;51.052;6.982;2023-08-21T10:06:09;6.60;;;4.57;;
16242;SDS011;11719;51.052;6.982;2023-08-21T10:08:37;8.95;;;4.93;;
16242;SDS011;11719;51.052;6.982;2023-08-21T10:11:07;4.65;;;3.72;;
16242;SDS011;11719;51.052;6.982;2023-08-21T10:13:34;7.25;;;4.53;;
16242;SDS011;11719;51.052;6.982;2023-08-21T10:16:02;6.38;;;4.78;;
16242;SDS011;11719;51.052;6.982;2023-08-21T10:21:12;5.22;;;3.13;;
16242;SDS011;11719;51.052;6.982;2023-08-21T10:23:45;5.03;;;3.85;;
16242;SDS011;11719;51.052;6.982;2023-08-21T10:26:13;5.43;;;4.13;;
16242;SDS011;11719;51.052;6.982;2023-08-21T10:31:34;10.02;;;5.80;;
16242;SDS011;11719;51.052;6.982;2023-08-21T10:34:07;8.27;;;5.05;;
16242;SDS011;11719;51.052;6.982;2023-08-21T10:39:19;7.78;;;5.43;;
16242;SDS011;11719;51.052;6.982;2023-08-21T10:49:53;5.95;;;3.90;;
16242;SDS011;11719;51.052;6.982;2023-08-21T10:52:25;6.97;;;4.43;;
16242;SDS011;11719;51.052;6.982;2023-08-21T10:54:57;6.50;;;4.00;;
16242;SDS011;11719;51.052;6.982;2023-08-21T10:57:25;7.55;;;3.85;;
16242;SDS011;11719;51.052;6.982;2023-08-21T10:59:54;6.72;;;4.45;;
16242;SDS011;11719;51.052;6.982;2023-08-21T11:02:26;7.75;;;4.35;;
16242;SDS011;11719;51.052;6.982;2023-08-21T11:04:56;5.65;;;4.10;;
16242;SDS011;11719;51.052;6.982;2023-08-21T11:07:23;5.53;;;3.80;;
16242;SDS011;11719;51.052;6.982;2023-08-21T11:09:50;4.55;;;3.60;;
16242;SDS011;11719;51.052;6.982;2023-08-21T11:12:17;5.22;;;3.60;;
16242;SDS011;11719;51.052;6.982;2023-08-21T11:14:48;5.45;;;3.28;;
16242;SDS011;11719;51.052;6.982;2023-08-21T11:17:14;5.85;;;4.03;;
16242;SDS011;11719;51.052;6.982;2023-08-21T11:19:41;5.25;;;3.92;;
16242;SDS011;11719;51.052;6.982;2023-08-21T11:22:07;7.95;;;4.10;;
16242;SDS011;11719;51.052;6.982;2023-08-21T11:24:46;6.00;;;3.65;;
16242;SDS011;11719;51.052;6.982;2023-08-21T11:27:14;6.13;;;4.57;;
16242;SDS011;11719;51.052;6.982;2023-08-21T11:29:42;5.78;;;4.25;;
16242;SDS011;11719;51.052;6.982;2023-08-21T11:34:37;6.35;;;3.90;;
16242;SDS011;11719;51.052;6.982;2023-08-21T11:37:04;6.90;;;3.67;;
16242;SDS011;11719;51.052;6.982;2023-08-21T11:39:43;6.75;;;2.88;;
16242;SDS011;11719;51.052;6.982;2023-08-21T11:42:12;3.58;;;3.28;;
16242;SDS011;11719;51.052;6.982;2023-08-21T11:44:52;5.80;;;3.55;;
16242;SDS011;11719;51.052;6.982;2023-08-21T11:47:19;8.82;;;4.72;;
16242;SDS011;11719;51.052;6.982;2023-08-21T11:49:46;7.65;;;4.30;;
16242;SDS011;11719;51.052;6.982;2023-08-21T11:52:17;5.40;;;3.47;;
16242;SDS011;11719;51.052;6.982;2023-08-21T11:54:50;5.05;;;4.18;;
16242;SDS011;11719;51.052;6.982;2023-08-21T11:57:19;5.40;;;4.50;;
16242;SDS011;11719;51.052;6.982;2023-08-21T11:59:50;5.57;;;4.55;;
16242;SDS011;11719;51.052;6.982;2023-08-21T12:02:18;6.40;;;4.75;;
16242;SDS011;11719;51.052;6.982;2023-08-21T12:05:06;6.28;;;3.95;;
16242;SDS011;11719;51.052;6.982;2023-08-21T12:07:39;5.97;;;4.47;;
16242;SDS011;11719;51.052;6.982;2023-08-21T12:10:05;10.63;;;4.93;;
16242;SDS011;11719;51.052;6.982;2023-08-21T12:12:31;5.78;;;4.75;;
16242;SDS011;11719;51.052;6.982;2023-08-21T12:14:57;6.22;;;4.90;;
16242;SDS011;11719;51.052;6.982;2023-08-21T12:17:23;5.75;;;3.95;;
16242;SDS011;11719;51.052;6.982;2023-08-21T12:19:48;6.03;;;3.85;;
16242;SDS011;11719;51.052;6.982;2023-08-21T12:22:14;7.53;;;4.63;;
16242;SDS011;11719;51.052;6.982;2023-08-21T12:24:40;5.25;;;3.63;;
16242;SDS011;11719;51.052;6.982;2023-08-21T12:27:06;5.75;;;3.20;;
16242;SDS011;11719;51.052;6.982;2023-08-21T12:29:32;3.88;;;2.95;;
16242;SDS011;11719;51.052;6.982;2023-08-21T12:31:58;4.47;;;3.38;;
16242;SDS011;11719;51.052;6.982;2023-08-21T12:34:23;6.55;;;3.50;;
16242;SDS011;11719;51.052;6.982;2023-08-21T12:36:50;5.60;;;3.03;;
16242;SDS011;11719;51.052;6.982;2023-08-21T12:39:16;4.70;;;2.88;;
16242;SDS011;11719;51.052;6.982;2023-08-21T12:41:43;7.28;;;3.47;;
16242;SDS011;11719;51.052;6.982;2023-08-21T12:44:09;6.25;;;3.13;;
16242;SDS011;11719;51.052;6.982;2023-08-21T12:46:35;9.13;;;3.42;;
16242;SDS011;11719;51.052;6.982;2023-08-21T12:49:01;5.07;;;3.13;;
16242;SDS011;11719;51.052;6.982;2023-08-21T12:51:28;3.60;;;3.28;;
16242;SDS011;11719;51.052;6.982;2023-08-21T12:53:54;5.78;;;2.53;;
16242;SDS011;11719;51.052;6.982;2023-08-21T12:56:20;7.25;;;2.75;;
16242;SDS011;11719;51.052;6.982;2023-08-21T12:58:46;7.22;;;3.63;;
16242;SDS011;11719;51.052;6.982;2023-08-21T13:01:13;4.50;;;2.80;;
16242;SDS011;11719;51.052;6.982;2023-08-21T13:03:43;4.78;;;3.08;;
16242;SDS011;11719;51.052;6.982;2023-08-21T13:06:11;4.65;;;2.95;;
16242;SDS011;11719;51.052;6.982;2023-08-21T13:08:38;7.15;;;2.38;;
16242;SDS011;11719;51.052;6.982;2023-08-21T13:11:03;4.38;;;3.08;;
16242;SDS011;11719;51.052;6.982;2023-08-21T13:13:30;4.10;;;3.00;;
16242;SDS011;11719;51.052;6.982;2023-08-21T13:15:56;4.75;;;2.72;;
16242;SDS011;11719;51.052;6.982;2023-08-21T13:18:23;3.47;;;2.42;;
16242;SDS011;11719;51.052;6.982;2023-08-21T13:20:49;5.97;;;2.55;;
16242;SDS011;11719;51.052;6.982;2023-08-21T13:23:15;5.40;;;3.13;;
16242;SDS011;11719;51.052;6.982;2023-08-21T13:25:40;4.60;;;2.63;;
16242;SDS011;11719;51.052;6.982;2023-08-21T13:28:06;4.57;;;2.58;;
16242;SDS011;11719;51.052;6.982;2023-08-21T13:30:32;4.25;;;2.58;;
16242;SDS011;11719;51.052;6.982;2023-08-21T13:32:58;6.10;;;2.45;;
16242;SDS011;11719;51.052;6.982;2023-08-21T13:35:24;3.90;;;2.50;;
16242;SDS011;11719;51.052;6.982;2023-08-21T13:37:50;5.38;;;2.85;;
16242;SDS011;11719;51.052;6.982;2023-08-21T13:40:16;5.88;;;2.40;;
16242;SDS011;11719;51.052;6.982;2023-08-21T13:42:42;4.18;;;2.83;;
16242;SDS011;11719;51.052;6.982;2023-08-21T13:45:14;3.13;;;2.28;;
16242;SDS011;11719;51.052;6.982;2023-08-21T13:47:45;2.50;;;2.20;;
16242;SDS011;11719;51.052;6.982;2023-08-21T13:50:13;3.10;;;2.33;;
16242;SDS011;11719;51.052;6.982;2023-08-21T13:52:40;3.30;;;2.17;;
16242;SDS011;11719;51.052;6.982;2023-08-21T13:55:07;4.57;;;2.63;;
16242;SDS011;11719;51.052;6.982;2023-08-21T13:57:35;4.40;;;3.13;;
16242;SDS011;11719;51.052;6.982;2023-08-21T14:00:03;4.30;;;2.58;;
16242;SDS011;11719;51.052;6.982;2023-08-21T14:02:32;3.78;;;2.13;;
16242;SDS011;11719;51.052;6.982;2023-08-21T14:04:59;2.40;;;1.90;;
16242;SDS011;11719;51.052;6.982;2023-08-21T14:07:26;11.68;;;2.22;;
16242;SDS011;11719;51.052;6.982;2023-08-21T14:09:52;2.72;;;2.47;;
16242;SDS011;11719;51.052;6.982;2023-08-21T14:12:18;3.67;;;1.85;;
16242;SDS011;11719;51.052;6.982;2023-08-21T14:14:44;3.70;;;2.47;;
16242;SDS011;11719;51.052;6.982;2023-08-21T14:17:10;5.30;;;2.15;;
16242;SDS011;11719;51.052;6.982;2023-08-21T14:19:36;4.10;;;1.92;;
16242;SDS011;11719;51.052;6.982;2023-08-21T14:22:01;3.78;;;2.20;;
16242;SDS011;11719;51.052;6.982;2023-08-21T14:24:28;3.45;;;1.90;;
16242;SDS011;11719;51.052;6.982;2023-08-21T14:26:54;2.58;;;2.22;;
16242;SDS011;11719;51.052;6.982;2023-08-21T14:29:20;2.72;;;2.25;;
16242;SDS011;11719;51.052;6.982;2023-08-21T14:31:45;4.90;;;2.10;;
16242;SDS011;11719;51.052;6.982;2023-08-21T14:34:12;2.53;;;1.85;;
16242;SDS011;11719;51.052;6.982;2023-08-21T14:36:39;4.78;;;2.38;;
16242;SDS011;11719;51.052;6.982;2023-08-21T14:39:05;2.53;;;2.25;;
16242;SDS011;11719;51.052;6.982;2023-08-21T14:41:31;2.85;;;2.30;;
16242;SDS011;11719;51.052;6.982;2023-08-21T14:43:57;2.30;;;2.10;;
16242;SDS011;11719;51.052;6.982;2023-08-21T14:46:22;4.25;;;1.88;;
16242;SDS011;11719;51.052;6.982;2023-08-21T14:48:48;3.42;;;2.30;;
16242;SDS011;11719;51.052;6.982;2023-08-21T14:51:14;2.35;;;2.10;;
16242;SDS011;11719;51.052;6.982;2023-08-21T14:53:40;3.05;;;2.60;;
16242;SDS011;11719;51.052;6.982;2023-08-21T14:56:06;18.92;;;5.70;;
16242;SDS011;11719;51.052;6.982;2023-08-21T14:58:31;23.20;;;6.78;;
16242;SDS011;11719;51.052;6.982;2023-08-21T15:00:57;21.02;;;5.57;;
16242;SDS011;11719;51.052;6.982;2023-08-21T15:03:23;31.77;;;7.68;;
16242;SDS011;11719;51.052;6.982;2023-08-21T15:05:49;8.55;;;3.30;;
16242;SDS011;11719;51.052;6.982;2023-08-21T15:08:15;11.70;;;4.45;;